createdAt,value
2023-11-27T00:00:37.675Z,100135.84
2023-11-27T00:03:07.998Z,100135.06
2023-11-27T00:05:35.103Z,100126.72
2023-11-27T00:08:01.877Z,100104.22
2023-11-27T00:10:28.735Z,100119.22
2023-11-27T00:13:00.909Z,100116.75
2023-11-27T00:15:28.899Z,100066.13
2023-11-27T00:17:56.076Z,100099.88
2023-11-27T00:20:23.495Z,100105.69
2023-11-27T00:22:50.303Z,100100.63
2023-11-27T00:25:17.364Z,100092.25
2023-11-27T00:27:44.563Z,100050.03
2023-11-27T00:30:12.004Z,100086.47
2023-11-27T00:32:38.848Z,100055.88
2023-11-27T00:35:06.381Z,100061.78
2023-11-27T00:37:33.264Z,100068.59
2023-11-27T00:40:00.310Z,100063.25
2023-11-27T00:42:27.348Z,100064.19
2023-11-27T00:44:54.205Z,100060.69
2023-11-27T00:47:20.941Z,100053.03
2023-11-27T00:49:47.680Z,100054.06
2023-11-27T00:52:14.538Z,100057.47
2023-11-27T00:54:41.318Z,100043.94
2023-11-27T00:57:08.195Z,100047.97
2023-11-27T00:59:40.324Z,100050.66
2023-11-27T01:02:08.095Z,100044.81
2023-11-27T01:04:35.005Z,100043.94
2023-11-27T01:07:02.002Z,100028.72
2023-11-27T01:09:29.720Z,100040.63
2023-11-27T01:11:56.499Z,100027.97
2023-11-27T01:14:23.384Z,100031.16
2023-11-27T01:16:50.220Z,100030.25
2023-11-27T01:19:19.011Z,100034.66
2023-11-27T01:21:45.923Z,100031.22
2023-11-27T01:24:13.474Z,100031.06
2023-11-27T01:26:40.287Z,100022.38
2023-11-27T01:29:07.276Z,100027.59
2023-11-27T01:31:34.020Z,100025.72
2023-11-27T01:34:00.896Z,100011.94
2023-11-27T01:36:28.627Z,100000.13
2023-11-27T01:38:55.393Z,100017.25
2023-11-27T01:41:22.621Z,99979.75
2023-11-27T01:43:49.394Z,100010.75
2023-11-27T01:46:45.363Z,99999.59
2023-11-27T01:49:13.716Z,99997.06
2023-11-27T01:51:41.559Z,99989.38
2023-11-27T01:54:08.529Z,99980.91
2023-11-27T01:56:36.336Z,99962.19
2023-11-27T01:59:03.170Z,99969.69
2023-11-27T02:01:31.855Z,99973.50
2023-11-27T02:03:58.703Z,99969.22
2023-11-27T02:06:25.578Z,99975.19
2023-11-27T02:08:52.367Z,99970.19
2023-11-27T02:11:20.703Z,99968.38
2023-11-27T02:13:48.161Z,99969.66
2023-11-27T02:16:17.485Z,99964.69
2023-11-27T02:18:45.202Z,99955.19
2023-11-27T02:21:13.380Z,99946.63
2023-11-27T02:23:40.231Z,99943.28
2023-11-27T02:26:07.939Z,99940.63
2023-11-27T02:28:34.850Z,99940.69
2023-11-27T02:31:01.758Z,99940.84
2023-11-27T02:33:28.808Z,99940.66
2023-11-27T02:35:55.634Z,99927.16
2023-11-27T02:38:22.494Z,99936.69
2023-11-27T02:40:49.359Z,99924.06
2023-11-27T02:43:16.161Z,99919.66
2023-11-27T02:45:43.384Z,99912.84
2023-11-27T02:48:10.251Z,99918.94
2023-11-27T02:50:36.932Z,99916.53
2023-11-27T02:53:03.701Z,99913.16
2023-11-27T02:55:30.594Z,99894.63
2023-11-27T02:57:57.670Z,99914.00
2023-11-27T03:00:24.654Z,99908.97
2023-11-27T03:02:51.680Z,99908.88
2023-11-27T03:05:18.642Z,99899.56
2023-11-27T03:07:46.245Z,99902.13
2023-11-27T03:10:14.787Z,99848.00
2023-11-27T03:12:42.825Z,99893.59
2023-11-27T03:15:09.997Z,99888.38
2023-11-27T03:17:42.050Z,99892.88
2023-11-27T03:20:12.230Z,99820.94
2023-11-27T03:22:42.421Z,99885.03
2023-11-27T03:25:09.753Z,99877.94
2023-11-27T03:27:37.469Z,99880.72
2023-11-27T03:30:06.042Z,99873.09
2023-11-27T03:32:33.586Z,99857.19
2023-11-27T03:35:00.555Z,99876.59
2023-11-27T03:37:27.492Z,99864.72
2023-11-27T03:39:54.367Z,99869.03
2023-11-27T03:42:21.220Z,99858.06
2023-11-27T03:44:48.317Z,99856.34
2023-11-27T03:47:15.128Z,99857.28
2023-11-27T03:49:41.944Z,99860.97
2023-11-27T03:52:09.012Z,99852.34
2023-11-27T03:54:36.049Z,99852.94
2023-11-27T03:57:02.900Z,99846.94
2023-11-27T03:59:29.831Z,99801.38
2023-11-27T04:01:56.753Z,99831.91
2023-11-27T04:04:23.785Z,99832.66
2023-11-27T04:06:50.918Z,99836.91
2023-11-27T04:09:22.285Z,99832.03
2023-11-27T04:11:53.156Z,99828.34
2023-11-27T04:14:19.877Z,99817.53
2023-11-27T04:16:46.981Z,99809.72
2023-11-27T04:19:13.841Z,99811.63
2023-11-27T04:21:40.694Z,99795.50
2023-11-27T04:24:08.620Z,99804.81
2023-11-27T04:26:35.873Z,99798.91
2023-11-27T04:29:03.087Z,99786.91
2023-11-27T04:31:30.071Z,99798.78
2023-11-27T04:33:57.389Z,99795.41
2023-11-27T04:36:24.673Z,99786.09
2023-11-27T04:38:51.878Z,99782.66
2023-11-27T04:41:20.746Z,99774.97
2023-11-27T04:43:47.817Z,99773.22
2023-11-27T04:46:14.845Z,99772.41
2023-11-27T04:48:41.956Z,99772.50
2023-11-27T04:51:09.166Z,99778.34
2023-11-27T04:53:35.964Z,99768.22
2023-11-27T04:56:02.761Z,99761.41
2023-11-27T04:58:29.966Z,99769.03
2023-11-27T05:00:57.158Z,99766.22
2023-11-27T05:03:24.293Z,99773.81
2023-11-27T05:05:51.182Z,99769.59
2023-11-27T05:08:18.023Z,99755.97
2023-11-27T05:10:47.029Z,99736.53
2023-11-27T05:13:14.971Z,99734.06
2023-11-27T05:15:41.794Z,99748.38
2023-11-27T05:18:08.897Z,99743.94
2023-11-27T05:20:35.713Z,99750.09
2023-11-27T05:23:03.399Z,99744.81
2023-11-27T05:25:30.421Z,99745.47
2023-11-27T05:27:57.384Z,99743.84
2023-11-27T05:30:24.204Z,99737.97
2023-11-27T05:32:51.818Z,99738.84
2023-11-27T05:35:18.728Z,99699.97
2023-11-27T05:37:45.530Z,99731.19
2023-11-27T05:40:12.853Z,99723.34
2023-11-27T05:42:42.307Z,99721.84
2023-11-27T05:45:12.648Z,99721.88
2023-11-27T05:47:42.559Z,99701.47
2023-11-27T05:50:16.393Z,99717.56
2023-11-27T05:52:43.722Z,99699.63
2023-11-27T05:55:10.740Z,99707.78
2023-11-27T05:57:38.341Z,99706.38
2023-11-27T06:00:06.930Z,99700.34
2023-11-27T06:02:33.853Z,99696.25
2023-11-27T06:05:00.623Z,99700.53
2023-11-27T06:07:27.526Z,99691.81
2023-11-27T06:09:54.397Z,99655.75
2023-11-27T06:12:24.927Z,99688.41
2023-11-27T06:14:51.882Z,99687.78
2023-11-27T06:17:18.957Z,99689.38
2023-11-27T06:19:46.152Z,99687.13
2023-11-27T06:22:13.420Z,99676.59
2023-11-27T06:24:40.550Z,99681.63
2023-11-27T06:27:07.265Z,99678.34
2023-11-27T06:29:34.229Z,99673.28
2023-11-27T06:32:01.116Z,99657.34
2023-11-27T06:34:39.251Z,99660.72
2023-11-27T06:37:06.645Z,99662.91
2023-11-27T06:39:35.586Z,99658.84
2023-11-27T06:42:03.889Z,99656.28
2023-11-27T06:44:30.873Z,99654.03
2023-11-27T06:46:59.841Z,99650.41
2023-11-27T06:49:27.748Z,99631.75
2023-11-27T06:51:54.950Z,99617.53
2023-11-27T06:54:24.223Z,99641.78
2023-11-27T06:56:53.215Z,99634.84
2023-11-27T06:59:20.699Z,99634.66
2023-11-27T07:01:48.091Z,99632.13
2023-11-27T07:04:15.304Z,99633.09
2023-11-27T07:06:43.064Z,99628.84
2023-11-27T07:09:12.243Z,99621.13
2023-11-27T07:11:39.022Z,99599.19
2023-11-27T07:14:06.417Z,99613.59
2023-11-27T07:16:35.537Z,99610.25
2023-11-27T07:19:02.724Z,99608.56
2023-11-27T07:21:30.677Z,99605.28
2023-11-27T07:23:58.029Z,99607.50
2023-11-27T07:26:26.260Z,99601.53
2023-11-27T07:28:55.389Z,99594.75
2023-11-27T07:31:23.125Z,99547.47
2023-11-27T07:33:50.390Z,99581.63
2023-11-27T07:36:18.174Z,99588.78
2023-11-27T07:38:49.754Z,99581.84
2023-11-27T07:41:19.277Z,99577.41
2023-11-27T07:43:48.431Z,99573.69
2023-11-27T07:46:16.152Z,99561.69
2023-11-27T07:48:45.747Z,99552.28
2023-11-27T07:51:13.714Z,99533.00
2023-11-27T07:53:41.001Z,99552.84
2023-11-27T07:56:08.409Z,99542.00
2023-11-27T07:58:35.358Z,99542.69
2023-11-27T08:01:02.191Z,99544.47
2023-11-27T08:03:29.136Z,99539.13
2023-11-27T08:05:56.060Z,99531.38
2023-11-27T08:08:22.758Z,99531.31
2023-11-27T08:10:49.491Z,99523.66
2023-11-27T08:13:17.632Z,99508.25
2023-11-27T08:15:45.558Z,99516.38
2023-11-27T08:18:13.133Z,99515.81
2023-11-27T08:20:40.157Z,99514.09
2023-11-27T08:23:06.948Z,99495.56
2023-11-27T08:25:34.395Z,99512.13
2023-11-27T08:28:03.519Z,99504.63
2023-11-27T08:30:34.019Z,99509.66
2023-11-27T08:33:02.429Z,99490.81
2023-11-27T08:35:29.459Z,99466.94
2023-11-27T08:37:57.054Z,99494.78
2023-11-27T08:40:24.268Z,99490.91
2023-11-27T08:42:51.148Z,99491.66
2023-11-27T08:45:19.443Z,99484.81
2023-11-27T08:47:53.973Z,99486.44
2023-11-27T08:50:25.719Z,99424.16
2023-11-27T08:52:59.485Z,99476.88
2023-11-27T08:55:31.921Z,99471.91
2023-11-27T08:58:02.736Z,99467.69
2023-11-27T09:00:30.396Z,99454.94
2023-11-27T09:03:01.923Z,99412.53
2023-11-27T09:05:32.897Z,99432.59
2023-11-27T09:08:07.997Z,99457.09
2023-11-27T09:10:36.763Z,99447.59
2023-11-27T09:13:07.316Z,99397.19
2023-11-27T09:15:38.181Z,99441.53
2023-11-27T09:18:05.268Z,99439.00
2023-11-27T09:20:32.200Z,99425.03
2023-11-27T09:22:59.295Z,99431.59
2023-11-27T09:25:26.129Z,99426.25
2023-11-27T09:27:53.012Z,99419.84
2023-11-27T09:30:22.065Z,99420.66
2023-11-27T09:32:49.545Z,99407.16
2023-11-27T09:35:16.900Z,99404.63
2023-11-27T09:37:44.436Z,99390.19
2023-11-27T09:40:14.105Z,99397.75
2023-11-27T09:42:47.078Z,99374.25
2023-11-27T09:45:18.420Z,99387.94
2023-11-27T09:47:50.152Z,99375.25
2023-11-27T09:50:20.989Z,99309.69
2023-11-27T09:53:07.653Z,99366.56
2023-11-27T09:55:42.338Z,99358.06
2023-11-27T09:58:14.744Z,99358.63
2023-11-27T10:00:43.906Z,99351.75
2023-11-27T10:03:11.311Z,99343.50
2023-11-27T10:05:39.009Z,99330.94
2023-11-27T10:08:10.497Z,99329.84
2023-11-27T10:10:39.037Z,99330.72
2023-11-27T10:13:09.934Z,99292.25
2023-11-27T10:15:50.124Z,99321.31
2023-11-27T10:18:21.210Z,99304.03
2023-11-27T10:20:51.063Z,99306.50
2023-11-27T10:23:18.131Z,99301.44
2023-11-27T10:25:46.474Z,99304.97
2023-11-27T10:28:16.618Z,99278.00
2023-11-27T10:30:46.546Z,99282.00
2023-11-27T10:33:13.509Z,99277.59
2023-11-27T10:35:43.479Z,99268.03
2023-11-27T10:38:20.310Z,99252.56
2023-11-27T10:40:47.693Z,99229.22
2023-11-27T10:43:14.766Z,99220.75
2023-11-27T10:45:41.844Z,99211.97
2023-11-27T10:48:12.446Z,99207.19
2023-11-27T10:50:43.095Z,99191.91
2023-11-27T10:53:12.039Z,99193.19
2023-11-27T10:55:40.278Z,99175.56
2023-11-27T10:58:09.485Z,99180.47
2023-11-27T11:00:48.542Z,99180.47
2023-11-27T11:03:22.957Z,99174.38
2023-11-27T11:05:55.193Z,99163.72
2023-11-27T11:08:25.061Z,99162.22
2023-11-27T11:10:54.872Z,99153.63
2023-11-27T11:13:24.906Z,99044.09
2023-11-27T11:16:22.072Z,99139.47
2023-11-27T11:18:56.044Z,99127.84
2023-11-27T11:22:08.498Z,99129.66
2023-11-27T11:25:05.332Z,99114.72
2023-11-27T11:27:49.791Z,99114.66
2023-11-27T11:30:16.784Z,99120.63
2023-11-27T11:32:44.361Z,99116.53
2023-11-27T11:35:14.134Z,99110.19
2023-11-27T11:37:51.343Z,99117.41
2023-11-27T11:40:19.117Z,99104.19
2023-11-27T11:42:46.473Z,99095.22
2023-11-27T11:45:26.689Z,99087.63
2023-11-27T11:48:20.142Z,99078.09
2023-11-27T11:50:48.684Z,99071.56
2023-11-27T11:53:38.399Z,99067.59
2023-11-27T11:56:20.614Z,99044.91
2023-11-27T11:58:51.433Z,99044.47
2023-11-27T12:01:19.968Z,99057.50
2023-11-27T12:03:48.163Z,99051.66
2023-11-27T12:06:17.137Z,99014.22
2023-11-27T12:08:46.835Z,99044.75
2023-11-27T12:11:16.864Z,99034.47
2023-11-27T12:13:45.827Z,99032.47
2023-11-27T12:16:14.134Z,99027.22
2023-11-27T12:18:52.762Z,99009.34
2023-11-27T12:21:23.918Z,98988.81
2023-11-27T12:23:55.934Z,99003.56
2023-11-27T12:26:25.638Z,98996.53
2023-11-27T12:28:55.430Z,98988.19
2023-11-27T12:31:29.165Z,98937.88
2023-11-27T12:33:56.082Z,98962.13
2023-11-27T12:36:27.791Z,98957.81
2023-11-27T12:38:57.608Z,98955.22
2023-11-27T12:41:34.659Z,98961.78
2023-11-27T12:44:09.638Z,98957.06
2023-11-27T12:46:39.551Z,98953.00
2023-11-27T12:49:08.302Z,98947.38
2023-11-27T12:51:39.385Z,98941.06
2023-11-27T12:54:05.904Z,98914.34
2023-11-27T12:56:33.349Z,98927.09
2023-11-27T12:59:01.874Z,98852.94
2023-11-27T13:01:28.474Z,98923.19
2023-11-27T13:03:57.659Z,98918.94
2023-11-27T13:06:28.842Z,98914.56
2023-11-27T13:08:55.633Z,98916.78
2023-11-27T13:11:33.974Z,98908.22
2023-11-27T13:14:08.793Z,98905.13
2023-11-27T13:16:36.568Z,98896.41
2023-11-27T13:19:07.737Z,98892.09
2023-11-27T13:21:34.278Z,98888.03
2023-11-27T13:24:00.957Z,98878.19
2023-11-27T13:26:36.619Z,98877.31
2023-11-27T13:29:07.908Z,98874.75
2023-11-27T13:31:37.565Z,98863.13
2023-11-27T13:34:31.088Z,98846.41
2023-11-27T13:37:00.325Z,98859.47
2023-11-27T13:39:37.774Z,98829.19
2023-11-27T13:42:09.759Z,98840.53
2023-11-27T13:44:45.928Z,98843.97
2023-11-27T13:47:18.386Z,98837.03
2023-11-27T13:49:49.632Z,98816.63
2023-11-27T13:52:19.157Z,98811.41
2023-11-27T13:54:46.545Z,98772.88
2023-11-27T13:57:13.909Z,98816.41
2023-11-27T13:59:43.624Z,98806.22
2023-11-27T14:02:14.561Z,98797.16
2023-11-27T14:05:17.727Z,98788.75
2023-11-27T14:07:44.444Z,98778.56
2023-11-27T14:10:33.008Z,98779.34
2023-11-27T14:13:09.314Z,98778.41
2023-11-27T14:16:03.067Z,98778.63
2023-11-27T14:18:48.423Z,98746.81
2023-11-27T14:21:33.519Z,98749.78
2023-11-27T14:24:02.666Z,98743.22
2023-11-27T14:26:50.125Z,98759.47
2023-11-27T14:29:22.648Z,98757.28
2023-11-27T14:34:34.262Z,98738.56
2023-11-27T14:37:07.870Z,98726.78
2023-11-27T14:39:34.486Z,98725.31
2023-11-27T14:42:01.274Z,98718.56
2023-11-27T14:44:30.078Z,98712.00
2023-11-27T14:46:59.099Z,98712.16
2023-11-27T14:49:26.865Z,98710.25
2023-11-27T14:51:59.969Z,98711.94
2023-11-27T14:54:30.130Z,98704.38
2023-11-27T14:56:57.441Z,98701.50
2023-11-27T14:59:26.715Z,98700.59
2023-11-27T15:01:54.672Z,98686.38
2023-11-27T15:04:22.000Z,98689.59
2023-11-27T15:06:50.107Z,98682.25
2023-11-27T15:09:22.528Z,98674.59
2023-11-27T15:11:55.790Z,98673.47
2023-11-27T15:14:24.914Z,98664.34
2023-11-27T15:17:08.511Z,98659.19
2023-11-27T15:25:11.027Z,98644.94
2023-11-27T15:27:40.784Z,98636.13
2023-11-27T15:30:10.153Z,98637.56
2023-11-27T15:32:39.026Z,98630.00
2023-11-27T15:35:11.422Z,98619.44
2023-11-27T15:37:40.706Z,98622.88
2023-11-27T15:40:10.102Z,98572.75
2023-11-27T15:42:37.017Z,98621.28
2023-11-27T15:45:11.975Z,98589.19
2023-11-27T15:47:38.558Z,98601.94
2023-11-27T15:50:05.934Z,98600.94
2023-11-27T15:52:40.254Z,98590.75
2023-11-27T15:55:10.047Z,98583.22
2023-11-27T15:57:36.639Z,98572.81
2023-11-27T16:00:04.655Z,98577.34
2023-11-27T16:02:31.672Z,98540.28
2023-11-27T16:04:58.768Z,98562.06
2023-11-27T16:07:25.328Z,98560.22
2023-11-27T16:09:54.164Z,98565.53
2023-11-27T16:12:26.865Z,98542.38
2023-11-27T16:14:53.582Z,98555.22
2023-11-27T16:17:21.049Z,98544.69
2023-11-27T16:19:47.658Z,98534.72
2023-11-27T16:22:16.640Z,98530.09
2023-11-27T16:24:43.716Z,98526.22
2023-11-27T16:27:14.529Z,98532.97
2023-11-27T16:29:41.028Z,98537.09
2023-11-27T16:32:08.738Z,98526.44
2023-11-27T16:34:37.993Z,98532.44
2023-11-27T16:37:04.543Z,98516.50
2023-11-27T16:39:31.041Z,98506.94
2023-11-27T16:42:02.689Z,98512.59
2023-11-27T16:44:30.258Z,98510.09
2023-11-27T16:46:56.960Z,98504.72
2023-11-27T16:49:23.995Z,98492.56
2023-11-27T16:51:50.494Z,98476.09
2023-11-27T16:54:17.694Z,98455.72
2023-11-27T16:56:46.603Z,98491.78
2023-11-27T16:59:16.190Z,98482.72
2023-11-27T17:01:46.788Z,98461.94
2023-11-27T17:04:13.564Z,98476.50
2023-11-27T17:06:40.163Z,98471.75
2023-11-27T17:09:08.769Z,98468.56
2023-11-27T17:11:37.741Z,98471.19
2023-11-27T17:14:05.288Z,98433.97
2023-11-27T17:16:34.322Z,98451.16
2023-11-27T17:19:05.616Z,98455.09
2023-11-27T17:21:34.432Z,98452.59
2023-11-27T17:24:00.918Z,98450.91
2023-11-27T17:26:27.550Z,98406.84
2023-11-27T17:28:56.623Z,98451.03
2023-11-27T17:31:26.360Z,98391.53
2023-11-27T17:33:55.927Z,98432.16
2023-11-27T17:36:26.036Z,98438.03
2023-11-27T17:38:52.519Z,98432.22
2023-11-27T17:41:20.476Z,98432.16
2023-11-27T17:43:48.680Z,98432.97
2023-11-27T17:46:17.516Z,98402.00
2023-11-27T17:48:45.204Z,98416.44
2023-11-27T17:51:14.562Z,98424.50
2023-11-27T17:53:43.605Z,98417.50
2023-11-27T17:56:12.895Z,98359.97
2023-11-27T17:58:40.098Z,98414.47
2023-11-27T18:01:10.209Z,98347.09
2023-11-27T18:03:39.160Z,98404.63
2023-11-27T18:06:08.893Z,98403.91
2023-11-27T18:08:37.379Z,98399.28
2023-11-27T18:11:11.459Z,98397.75
2023-11-27T18:13:40.968Z,98394.16
2023-11-27T18:16:12.274Z,98383.44
2023-11-27T18:18:41.513Z,98327.91
2023-11-27T18:21:08.404Z,98386.88
2023-11-27T18:23:34.881Z,98376.78
2023-11-27T18:26:04.993Z,98369.75
2023-11-27T18:28:34.336Z,98365.56
2023-11-27T18:31:01.252Z,98370.16
2023-11-27T18:33:27.839Z,98364.81
2023-11-27T18:35:59.209Z,98354.72
2023-11-27T18:38:27.297Z,98351.19
2023-11-27T18:40:55.657Z,98351.94
2023-11-27T18:43:23.412Z,98355.59
2023-11-27T18:45:52.304Z,98343.47
2023-11-27T18:48:18.858Z,98337.34
2023-11-27T18:50:49.358Z,98332.31
2023-11-27T18:53:15.950Z,98327.41
2023-11-27T18:55:45.803Z,98323.47
2023-11-27T18:58:15.290Z,98258.16
2023-11-27T19:00:42.023Z,98321.84
2023-11-27T19:03:08.919Z,98313.81
2023-11-27T19:05:38.965Z,98324.34
2023-11-27T19:08:05.954Z,98305.97
2023-11-27T19:10:32.883Z,98309.28
2023-11-27T19:13:02.961Z,98302.91
2023-11-27T19:15:31.171Z,98308.63
2023-11-27T19:17:57.659Z,98291.03
2023-11-27T19:20:26.351Z,98301.47
2023-11-27T19:22:55.207Z,98297.50
2023-11-27T19:25:21.718Z,98309.31
2023-11-27T19:27:53.430Z,98287.28
2023-11-27T19:30:24.631Z,98281.91
2023-11-27T19:32:51.105Z,98279.97
2023-11-27T19:35:19.109Z,98272.56
2023-11-27T19:37:49.368Z,98273.66
2023-11-27T19:40:18.346Z,98264.00
2023-11-27T19:42:44.961Z,98261.53
2023-11-27T19:45:11.645Z,98260.47
2023-11-27T19:47:40.787Z,98246.75
2023-11-27T19:50:09.880Z,98245.00
2023-11-27T19:52:38.913Z,98244.06
2023-11-27T19:55:07.740Z,98244.00
2023-11-27T19:57:37.151Z,98242.94
2023-11-27T20:00:04.746Z,98242.94
2023-11-27T20:02:36.668Z,98237.19
2023-11-27T20:05:09.454Z,98235.94
2023-11-27T20:07:37.079Z,98235.78
2023-11-27T20:10:05.888Z,98226.59
2023-11-27T20:12:32.382Z,98234.00
2023-11-27T20:14:58.857Z,98206.34
2023-11-27T20:17:30.205Z,98224.44
2023-11-27T20:19:56.752Z,98173.00
2023-11-27T20:22:24.840Z,98211.06
2023-11-27T20:24:51.379Z,98212.59
2023-11-27T20:27:19.252Z,98209.84
2023-11-27T20:29:50.508Z,98197.03
2023-11-27T20:32:19.825Z,98206.47
2023-11-27T20:34:52.245Z,98196.63
2023-11-27T20:37:19.462Z,98195.38
2023-11-27T20:39:46.218Z,98188.22
2023-11-27T20:42:14.730Z,98183.47
2023-11-27T20:44:50.962Z,98192.41
2023-11-27T20:47:22.315Z,98198.44
2023-11-27T20:49:51.818Z,98199.19
2023-11-27T20:52:20.243Z,98196.69
2023-11-27T20:54:47.910Z,98191.59
2023-11-27T20:57:14.602Z,98192.91
2023-11-27T20:59:41.957Z,98146.22
2023-11-27T21:02:08.560Z,98162.97
2023-11-27T21:04:38.136Z,98188.41
2023-11-27T21:07:04.847Z,98180.75
2023-11-27T21:09:33.422Z,98135.25
2023-11-27T21:12:02.256Z,98177.09
2023-11-27T21:14:28.775Z,98168.81
2023-11-27T21:16:55.383Z,98167.84
2023-11-27T21:19:24.843Z,98160.25
2023-11-27T21:21:53.757Z,98157.81
2023-11-27T21:24:20.242Z,98159.75
2023-11-27T21:26:49.003Z,98144.28
2023-11-27T21:29:18.285Z,98152.84
2023-11-27T21:31:44.877Z,98151.53
2023-11-27T21:34:11.555Z,98153.75
2023-11-27T21:36:38.122Z,98133.56
2023-11-27T21:39:06.869Z,98131.06
2023-11-27T21:41:33.883Z,98141.94
2023-11-27T21:44:00.907Z,98150.50
2023-11-27T21:46:27.683Z,98148.72
2023-11-27T21:48:57.541Z,98139.72
2023-11-27T21:51:24.952Z,98117.88
2023-11-27T21:53:51.488Z,98138.34
2023-11-27T21:56:17.967Z,98141.66
2023-11-27T21:58:49.308Z,98137.03
2023-11-27T22:01:17.739Z,98087.22
2023-11-27T22:03:47.196Z,98134.63
2023-11-27T22:06:16.172Z,98121.19
2023-11-27T22:08:45.347Z,98135.38
2023-11-27T22:11:14.074Z,98110.41
2023-11-27T22:13:42.941Z,98127.16
2023-11-27T22:16:10.030Z,98121.13
2023-11-27T22:18:36.649Z,98126.28
2023-11-27T22:21:05.645Z,98130.53
2023-11-27T22:23:32.099Z,98127.75
2023-11-27T22:25:58.598Z,98127.22
2023-11-27T22:28:25.130Z,98109.56
2023-11-27T22:30:51.664Z,98114.13
2023-11-27T22:33:20.352Z,98112.94
2023-11-27T22:35:47.913Z,98110.41
2023-11-27T22:38:15.355Z,98094.50
2023-11-27T22:40:41.828Z,98110.88
2023-11-27T22:43:08.382Z,98094.16
2023-11-27T22:45:34.869Z,98105.75
2023-11-27T22:48:01.355Z,98103.28
2023-11-27T22:50:27.941Z,98080.00
2023-11-27T22:52:56.797Z,98101.69
2023-11-27T22:55:25.563Z,98084.44
2023-11-27T22:57:56.962Z,98090.25
2023-11-27T23:00:24.046Z,98087.63
2023-11-27T23:02:50.963Z,98078.34
2023-11-27T23:05:17.817Z,98082.34
2023-11-27T23:07:46.577Z,98088.44
2023-11-27T23:10:13.621Z,98080.97
2023-11-27T23:12:43.038Z,98061.72
2023-11-27T23:15:12.228Z,98073.22
2023-11-27T23:17:40.272Z,98076.69
2023-11-27T23:20:07.991Z,98059.53
2023-11-27T23:22:34.468Z,98048.25
2023-11-27T23:25:03.610Z,98053.81
2023-11-27T23:27:30.109Z,98070.75
2023-11-27T23:29:56.575Z,98062.19
2023-11-27T23:32:23.680Z,98066.25
2023-11-27T23:34:50.206Z,98049.47
2023-11-27T23:37:16.884Z,98054.50
2023-11-27T23:39:43.386Z,98046.59
2023-11-27T23:42:12.179Z,98021.25
2023-11-27T23:44:40.191Z,98016.28
2023-11-27T23:47:08.958Z,98027.88
2023-11-27T23:49:38.815Z,98009.25
2023-11-27T23:52:05.421Z,98038.47
2023-11-27T23:54:31.970Z,98040.94
2023-11-27T23:57:00.861Z,98032.69
2023-11-27T23:59:27.539Z,98030.94
